sensor_id;sensor_type;location;lat;lon;timestamp;P1;durP1;ratioP1;P2;durP2;ratioP2
20729;SDS011;10526;50.850;12.928;2023-01-25T00:00:13;30.13;;;12.45;;
20729;SDS011;10526;50.850;12.928;2023-01-25T00:04:35;24.23;;;11.00;;
20729;SDS011;10526;50.850;12.928;2023-01-25T00:08:57;27.42;;;12.02;;
20729;SDS011;10526;50.850;12.928;2023-01-25T00:13:19;27.33;;;12.20;;
20729;SDS011;10526;50.850;12.928;2023-01-25T00:17:41;28.33;;;12.55;;
20729;SDS011;10526;50.850;12.928;2023-01-25T00:22:04;25.70;;;11.20;;
20729;SDS011;10526;50.850;12.928;2023-01-25T00:26:28;31.45;;;13.05;;
20729;SDS011;10526;50.850;12.928;2023-01-25T00:30:51;27.70;;;11.02;;
20729;SDS011;10526;50.850;12.928;2023-01-25T00:35:13;28.10;;;13.15;;
20729;SDS011;10526;50.850;12.928;2023-01-25T00:39:35;24.38;;;11.70;;
20729;SDS011;10526;50.850;12.928;2023-01-25T00:43:59;24.08;;;11.63;;
20729;SDS011;10526;50.850;12.928;2023-01-25T00:48:21;25.38;;;11.80;;
20729;SDS011;10526;50.850;12.928;2023-01-25T00:52:43;25.58;;;11.73;;
20729;SDS011;10526;50.850;12.928;2023-01-25T00:57:05;24.98;;;11.30;;
20729;SDS011;10526;50.850;12.928;2023-01-25T01:01:29;23.73;;;10.57;;
20729;SDS011;10526;50.850;12.928;2023-01-25T01:05:58;27.42;;;12.38;;
20729;SDS011;10526;50.850;12.928;2023-01-25T01:10:26;26.10;;;10.82;;
20729;SDS011;10526;50.850;12.928;2023-01-25T01:14:49;22.52;;;10.15;;
20729;SDS011;10526;50.850;12.928;2023-01-25T01:19:11;23.60;;;10.30;;
20729;SDS011;10526;50.850;12.928;2023-01-25T01:23:34;27.08;;;10.98;;
20729;SDS011;10526;50.850;12.928;2023-01-25T01:27:57;24.38;;;11.23;;
20729;SDS011;10526;50.850;12.928;2023-01-25T01:32:19;22.48;;;10.77;;
20729;SDS011;10526;50.850;12.928;2023-01-25T01:36:43;25.17;;;11.65;;
20729;SDS011;10526;50.850;12.928;2023-01-25T01:41:06;24.75;;;10.63;;
20729;SDS011;10526;50.850;12.928;2023-01-25T01:50:18;23.38;;;10.80;;
20729;SDS011;10526;50.850;12.928;2023-01-25T01:54:48;21.85;;;11.07;;
20729;SDS011;10526;50.850;12.928;2023-01-25T01:59:43;22.85;;;9.57;;
20729;SDS011;10526;50.850;12.928;2023-01-25T02:04:37;21.92;;;10.20;;
20729;SDS011;10526;50.850;12.928;2023-01-25T02:09:04;21.00;;;10.80;;
20729;SDS011;10526;50.850;12.928;2023-01-25T02:13:27;24.35;;;11.10;;
20729;SDS011;10526;50.850;12.928;2023-01-25T02:17:49;24.13;;;10.73;;
20729;SDS011;10526;50.850;12.928;2023-01-25T02:22:12;23.25;;;10.85;;
20729;SDS011;10526;50.850;12.928;2023-01-25T02:26:36;22.25;;;10.73;;
20729;SDS011;10526;50.850;12.928;2023-01-25T02:31:00;23.40;;;11.20;;
20729;SDS011;10526;50.850;12.928;2023-01-25T02:35:38;22.67;;;11.77;;
20729;SDS011;10526;50.850;12.928;2023-01-25T02:40:32;22.67;;;11.50;;
20729;SDS011;10526;50.850;12.928;2023-01-25T02:45:29;23.00;;;11.63;;
20729;SDS011;10526;50.850;12.928;2023-01-25T02:49:51;26.08;;;12.38;;
20729;SDS011;10526;50.850;12.928;2023-01-25T02:54:13;26.08;;;12.07;;
20729;SDS011;10526;50.850;12.928;2023-01-25T02:58:37;25.17;;;10.82;;
20729;SDS011;10526;50.850;12.928;2023-01-25T03:02:59;22.92;;;11.38;;
20729;SDS011;10526;50.850;12.928;2023-01-25T03:07:21;27.58;;;12.95;;
20729;SDS011;10526;50.850;12.928;2023-01-25T03:11:43;30.65;;;13.43;;
20729;SDS011;10526;50.850;12.928;2023-01-25T03:16:07;28.42;;;13.57;;
20729;SDS011;10526;50.850;12.928;2023-01-25T03:20:34;30.05;;;13.93;;
20729;SDS011;10526;50.850;12.928;2023-01-25T03:24:56;29.38;;;13.25;;
20729;SDS011;10526;50.850;12.928;2023-01-25T03:29:19;25.65;;;12.82;;
20729;SDS011;10526;50.850;12.928;2023-01-25T03:33:43;24.67;;;11.80;;
20729;SDS011;10526;50.850;12.928;2023-01-25T03:38:06;22.80;;;12.50;;
20729;SDS011;10526;50.850;12.928;2023-01-25T03:42:28;29.45;;;13.57;;
20729;SDS011;10526;50.850;12.928;2023-01-25T03:46:51;25.77;;;13.10;;
20729;SDS011;10526;50.850;12.928;2023-01-25T03:51:14;25.15;;;11.55;;
20729;SDS011;10526;50.850;12.928;2023-01-25T03:55:36;22.77;;;12.15;;
20729;SDS011;10526;50.850;12.928;2023-01-25T03:59:58;29.73;;;15.40;;
20729;SDS011;10526;50.850;12.928;2023-01-25T04:04:22;23.65;;;12.52;;
20729;SDS011;10526;50.850;12.928;2023-01-25T04:08:46;26.45;;;13.00;;
20729;SDS011;10526;50.850;12.928;2023-01-25T04:13:08;26.40;;;12.85;;
20729;SDS011;10526;50.850;12.928;2023-01-25T04:17:30;29.25;;;14.38;;
20729;SDS011;10526;50.850;12.928;2023-01-25T04:22:06;31.63;;;16.70;;
20729;SDS011;10526;50.850;12.928;2023-01-25T04:26:31;25.95;;;14.18;;
20729;SDS011;10526;50.850;12.928;2023-01-25T04:30:58;25.35;;;12.27;;
20729;SDS011;10526;50.850;12.928;2023-01-25T04:35:27;24.70;;;10.98;;
20729;SDS011;10526;50.850;12.928;2023-01-25T04:39:49;21.90;;;10.57;;
20729;SDS011;10526;50.850;12.928;2023-01-25T04:44:13;20.08;;;9.00;;
20729;SDS011;10526;50.850;12.928;2023-01-25T04:48:35;34.53;;;17.58;;
20729;SDS011;10526;50.850;12.928;2023-01-25T04:53:00;21.15;;;8.63;;
20729;SDS011;10526;50.850;12.928;2023-01-25T04:57:23;21.27;;;9.32;;
20729;SDS011;10526;50.850;12.928;2023-01-25T05:01:46;20.02;;;10.00;;
20729;SDS011;10526;50.850;12.928;2023-01-25T05:06:08;20.65;;;10.13;;
20729;SDS011;10526;50.850;12.928;2023-01-25T05:10:30;44.67;;;23.55;;
20729;SDS011;10526;50.850;12.928;2023-01-25T05:15:13;21.75;;;10.55;;
20729;SDS011;10526;50.850;12.928;2023-01-25T05:19:35;22.20;;;11.15;;
20729;SDS011;10526;50.850;12.928;2023-01-25T05:23:59;20.63;;;9.40;;
20729;SDS011;10526;50.850;12.928;2023-01-25T05:28:23;23.45;;;11.35;;
20729;SDS011;10526;50.850;12.928;2023-01-25T05:33:07;23.92;;;10.70;;
20729;SDS011;10526;50.850;12.928;2023-01-25T05:37:30;21.27;;;10.00;;
20729;SDS011;10526;50.850;12.928;2023-01-25T05:41:57;22.50;;;10.27;;
20729;SDS011;10526;50.850;12.928;2023-01-25T05:46:20;22.92;;;10.98;;
20729;SDS011;10526;50.850;12.928;2023-01-25T05:50:44;62.13;;;30.75;;
20729;SDS011;10526;50.850;12.928;2023-01-25T05:55:10;22.90;;;10.75;;
20729;SDS011;10526;50.850;12.928;2023-01-25T05:59:35;22.90;;;10.57;;
20729;SDS011;10526;50.850;12.928;2023-01-25T06:04:01;24.15;;;11.50;;
20729;SDS011;10526;50.850;12.928;2023-01-25T06:08:24;25.58;;;12.85;;
20729;SDS011;10526;50.850;12.928;2023-01-25T06:12:47;21.27;;;11.38;;
20729;SDS011;10526;50.850;12.928;2023-01-25T06:17:10;25.88;;;12.50;;
20729;SDS011;10526;50.850;12.928;2023-01-25T06:22:04;24.85;;;11.98;;
20729;SDS011;10526;50.850;12.928;2023-01-25T06:26:29;25.92;;;11.77;;
20729;SDS011;10526;50.850;12.928;2023-01-25T06:30:51;25.80;;;13.15;;
20729;SDS011;10526;50.850;12.928;2023-01-25T06:35:14;26.58;;;13.30;;
20729;SDS011;10526;50.850;12.928;2023-01-25T06:39:36;26.77;;;13.30;;
20729;SDS011;10526;50.850;12.928;2023-01-25T06:43:58;27.38;;;12.80;;
20729;SDS011;10526;50.850;12.928;2023-01-25T06:48:20;29.95;;;12.50;;
20729;SDS011;10526;50.850;12.928;2023-01-25T06:52:42;28.55;;;13.63;;
20729;SDS011;10526;50.850;12.928;2023-01-25T06:57:15;29.83;;;14.38;;
20729;SDS011;10526;50.850;12.928;2023-01-25T07:01:37;27.92;;;14.32;;
20729;SDS011;10526;50.850;12.928;2023-01-25T07:06:00;30.00;;;14.75;;
20729;SDS011;10526;50.850;12.928;2023-01-25T07:10:27;36.00;;;17.40;;
20729;SDS011;10526;50.850;12.928;2023-01-25T07:14:51;28.60;;;14.38;;
20729;SDS011;10526;50.850;12.928;2023-01-25T07:19:13;30.00;;;15.43;;
20729;SDS011;10526;50.850;12.928;2023-01-25T07:23:38;30.20;;;15.57;;
20729;SDS011;10526;50.850;12.928;2023-01-25T07:28:01;34.05;;;17.05;;
20729;SDS011;10526;50.850;12.928;2023-01-25T07:32:23;31.35;;;15.73;;
20729;SDS011;10526;50.850;12.928;2023-01-25T07:36:46;33.53;;;17.08;;
20729;SDS011;10526;50.850;12.928;2023-01-25T07:41:08;31.88;;;17.15;;
20729;SDS011;10526;50.850;12.928;2023-01-25T07:45:30;35.10;;;17.00;;
20729;SDS011;10526;50.850;12.928;2023-01-25T07:49:52;38.38;;;17.70;;
20729;SDS011;10526;50.850;12.928;2023-01-25T07:54:15;41.10;;;17.33;;
20729;SDS011;10526;50.850;12.928;2023-01-25T07:58:37;36.80;;;19.13;;
20729;SDS011;10526;50.850;12.928;2023-01-25T08:03:00;40.22;;;18.85;;
20729;SDS011;10526;50.850;12.928;2023-01-25T08:07:22;33.55;;;16.52;;
20729;SDS011;10526;50.850;12.928;2023-01-25T08:11:46;34.40;;;16.58;;
20729;SDS011;10526;50.850;12.928;2023-01-25T08:16:09;36.97;;;17.60;;
20729;SDS011;10526;50.850;12.928;2023-01-25T08:20:35;37.88;;;19.40;;
20729;SDS011;10526;50.850;12.928;2023-01-25T08:24:58;36.92;;;17.17;;
20729;SDS011;10526;50.850;12.928;2023-01-25T08:29:21;36.67;;;16.67;;
20729;SDS011;10526;50.850;12.928;2023-01-25T08:33:44;35.38;;;16.90;;
20729;SDS011;10526;50.850;12.928;2023-01-25T08:38:07;32.42;;;16.50;;
20729;SDS011;10526;50.850;12.928;2023-01-25T08:42:30;34.67;;;16.23;;
20729;SDS011;10526;50.850;12.928;2023-01-25T08:46:53;31.40;;;14.93;;
20729;SDS011;10526;50.850;12.928;2023-01-25T08:51:15;32.78;;;16.92;;
20729;SDS011;10526;50.850;12.928;2023-01-25T08:55:37;28.17;;;15.35;;
20729;SDS011;10526;50.850;12.928;2023-01-25T09:00:01;28.83;;;14.38;;
20729;SDS011;10526;50.850;12.928;2023-01-25T09:04:24;30.88;;;14.85;;
20729;SDS011;10526;50.850;12.928;2023-01-25T09:08:48;27.17;;;14.05;;
20729;SDS011;10526;50.850;12.928;2023-01-25T09:13:10;26.15;;;13.27;;
20729;SDS011;10526;50.850;12.928;2023-01-25T09:17:33;27.25;;;12.75;;
20729;SDS011;10526;50.850;12.928;2023-01-25T09:21:59;23.42;;;12.35;;
20729;SDS011;10526;50.850;12.928;2023-01-25T09:26:21;26.45;;;13.23;;
20729;SDS011;10526;50.850;12.928;2023-01-25T09:30:43;26.10;;;13.05;;
20729;SDS011;10526;50.850;12.928;2023-01-25T09:35:19;21.95;;;10.90;;
20729;SDS011;10526;50.850;12.928;2023-01-25T09:39:41;23.92;;;11.45;;
20729;SDS011;10526;50.850;12.928;2023-01-25T09:53:54;24.67;;;12.43;;
20729;SDS011;10526;50.850;12.928;2023-01-25T09:58:19;24.70;;;12.35;;
20729;SDS011;10526;50.850;12.928;2023-01-25T10:02:49;27.40;;;13.80;;
20729;SDS011;10526;50.850;12.928;2023-01-25T10:08:05;24.30;;;12.88;;
20729;SDS011;10526;50.850;12.928;2023-01-25T10:12:36;24.48;;;12.77;;
20729;SDS011;10526;50.850;12.928;2023-01-25T10:17:47;24.02;;;11.80;;
20729;SDS011;10526;50.850;12.928;2023-01-25T10:22:02;25.85;;;13.65;;
20729;SDS011;10526;50.850;12.928;2023-01-25T10:26:36;24.80;;;12.63;;
20729;SDS011;10526;50.850;12.928;2023-01-25T10:31:16;28.00;;;13.77;;
20729;SDS011;10526;50.850;12.928;2023-01-25T10:35:43;25.23;;;13.23;;
20729;SDS011;10526;50.850;12.928;2023-01-25T10:44:42;28.77;;;15.38;;
20729;SDS011;10526;50.850;12.928;2023-01-25T10:54:12;33.25;;;18.02;;
20729;SDS011;10526;50.850;12.928;2023-01-25T10:58:40;32.80;;;14.43;;
20729;SDS011;10526;50.850;12.928;2023-01-25T11:03:20;29.30;;;15.60;;
20729;SDS011;10526;50.850;12.928;2023-01-25T11:07:42;29.70;;;16.30;;
20729;SDS011;10526;50.850;12.928;2023-01-25T11:16:43;29.77;;;15.10;;
20729;SDS011;10526;50.850;12.928;2023-01-25T11:21:15;29.77;;;15.50;;
20729;SDS011;10526;50.850;12.928;2023-01-25T11:25:45;31.08;;;16.58;;
20729;SDS011;10526;50.850;12.928;2023-01-25T11:30:10;32.97;;;16.55;;
20729;SDS011;10526;50.850;12.928;2023-01-25T11:34:38;33.20;;;17.95;;
20729;SDS011;10526;50.850;12.928;2023-01-25T11:39:07;33.08;;;17.67;;
20729;SDS011;10526;50.850;12.928;2023-01-25T11:44:19;33.70;;;17.20;;
20729;SDS011;10526;50.850;12.928;2023-01-25T11:53:45;30.48;;;16.30;;
20729;SDS011;10526;50.850;12.928;2023-01-25T12:32:21;45.13;;;21.70;;
20729;SDS011;10526;50.850;12.928;2023-01-25T12:36:58;41.15;;;21.83;;
20729;SDS011;10526;50.850;12.928;2023-01-25T12:41:36;44.05;;;24.15;;
20729;SDS011;10526;50.850;12.928;2023-01-25T12:46:32;34.50;;;19.83;;
20729;SDS011;10526;50.850;12.928;2023-01-25T12:51:02;39.38;;;22.50;;
20729;SDS011;10526;50.850;12.928;2023-01-25T12:55:25;37.30;;;20.48;;
20729;SDS011;10526;50.850;12.928;2023-01-25T13:04:34;43.20;;;23.55;;
20729;SDS011;10526;50.850;12.928;2023-01-25T13:09:39;41.35;;;22.17;;
20729;SDS011;10526;50.850;12.928;2023-01-25T13:18:39;125.72;;;51.28;;
20729;SDS011;10526;50.850;12.928;2023-01-25T13:23:01;163.23;;;59.35;;
20729;SDS011;10526;50.850;12.928;2023-01-25T13:27:24;76.43;;;34.83;;
20729;SDS011;10526;50.850;12.928;2023-01-25T13:31:48;47.58;;;24.60;;
20729;SDS011;10526;50.850;12.928;2023-01-25T13:37:00;42.60;;;24.15;;
20729;SDS011;10526;50.850;12.928;2023-01-25T13:41:06;46.63;;;25.13;;
20729;SDS011;10526;50.850;12.928;2023-01-25T13:45:35;44.60;;;24.08;;
20729;SDS011;10526;50.850;12.928;2023-01-25T13:50:08;47.42;;;24.67;;
20729;SDS011;10526;50.850;12.928;2023-01-25T13:54:41;49.25;;;25.88;;
20729;SDS011;10526;50.850;12.928;2023-01-25T13:59:26;46.92;;;24.80;;
20729;SDS011;10526;50.850;12.928;2023-01-25T14:03:49;46.08;;;25.48;;
20729;SDS011;10526;50.850;12.928;2023-01-25T14:08:19;53.28;;;26.90;;
20729;SDS011;10526;50.850;12.928;2023-01-25T14:12:42;49.08;;;25.50;;
20729;SDS011;10526;50.850;12.928;2023-01-25T14:21:43;51.63;;;29.40;;
20729;SDS011;10526;50.850;12.928;2023-01-25T14:26:15;56.92;;;28.60;;
20729;SDS011;10526;50.850;12.928;2023-01-25T14:30:57;51.33;;;27.05;;
20729;SDS011;10526;50.850;12.928;2023-01-25T14:35:36;58.25;;;28.90;;
20729;SDS011;10526;50.850;12.928;2023-01-25T14:40:15;57.33;;;28.90;;
20729;SDS011;10526;50.850;12.928;2023-01-25T14:44:42;57.50;;;28.50;;
20729;SDS011;10526;50.850;12.928;2023-01-25T14:49:06;62.30;;;30.70;;
20729;SDS011;10526;50.850;12.928;2023-01-25T14:53:47;56.25;;;28.67;;
20729;SDS011;10526;50.850;12.928;2023-01-25T14:58:16;57.60;;;29.80;;
20729;SDS011;10526;50.850;12.928;2023-01-25T15:16:37;58.50;;;29.83;;
20729;SDS011;10526;50.850;12.928;2023-01-25T15:21:00;56.38;;;28.42;;
20729;SDS011;10526;50.850;12.928;2023-01-25T15:25:22;57.13;;;30.10;;
20729;SDS011;10526;50.850;12.928;2023-01-25T15:29:45;63.63;;;30.65;;
20729;SDS011;10526;50.850;12.928;2023-01-25T15:34:15;61.10;;;31.45;;
20729;SDS011;10526;50.850;12.928;2023-01-25T15:38:45;60.60;;;31.42;;
20729;SDS011;10526;50.850;12.928;2023-01-25T15:43:14;65.20;;;31.40;;
20729;SDS011;10526;50.850;12.928;2023-01-25T15:47:38;58.85;;;31.17;;
20729;SDS011;10526;50.850;12.928;2023-01-25T15:52:00;65.32;;;31.63;;
20729;SDS011;10526;50.850;12.928;2023-01-25T15:56:23;72.03;;;33.75;;
20729;SDS011;10526;50.850;12.928;2023-01-25T16:00:50;66.78;;;32.88;;
20729;SDS011;10526;50.850;12.928;2023-01-25T16:05:12;66.60;;;31.42;;
20729;SDS011;10526;50.850;12.928;2023-01-25T16:09:34;65.88;;;31.95;;
20729;SDS011;10526;50.850;12.928;2023-01-25T16:13:56;64.63;;;31.92;;
20729;SDS011;10526;50.850;12.928;2023-01-25T16:18:18;66.47;;;33.28;;
20729;SDS011;10526;50.850;12.928;2023-01-25T16:22:40;60.85;;;31.02;;
20729;SDS011;10526;50.850;12.928;2023-01-25T16:27:02;67.57;;;33.47;;
20729;SDS011;10526;50.850;12.928;2023-01-25T16:31:25;62.55;;;31.95;;
20729;SDS011;10526;50.850;12.928;2023-01-25T16:36:02;67.68;;;33.00;;
20729;SDS011;10526;50.850;12.928;2023-01-25T16:40:34;66.75;;;34.47;;
20729;SDS011;10526;50.850;12.928;2023-01-25T16:44:58;79.90;;;37.40;;
20729;SDS011;10526;50.850;12.928;2023-01-25T16:49:22;80.75;;;36.60;;
20729;SDS011;10526;50.850;12.928;2023-01-25T16:53:48;83.03;;;37.42;;
20729;SDS011;10526;50.850;12.928;2023-01-25T16:58:12;79.55;;;38.80;;
20729;SDS011;10526;50.850;12.928;2023-01-25T17:02:38;79.05;;;36.92;;
20729;SDS011;10526;50.850;12.928;2023-01-25T17:07:18;81.85;;;38.95;;
20729;SDS011;10526;50.850;12.928;2023-01-25T17:11:40;83.32;;;40.35;;
20729;SDS011;10526;50.850;12.928;2023-01-25T17:16:02;83.75;;;37.55;;
20729;SDS011;10526;50.850;12.928;2023-01-25T17:20:25;86.72;;;39.20;;
20729;SDS011;10526;50.850;12.928;2023-01-25T17:24:47;87.53;;;38.80;;
20729;SDS011;10526;50.850;12.928;2023-01-25T17:29:09;80.13;;;37.42;;
20729;SDS011;10526;50.850;12.928;2023-01-25T17:33:32;71.28;;;34.35;;
20729;SDS011;10526;50.850;12.928;2023-01-25T17:37:55;79.45;;;36.10;;
20729;SDS011;10526;50.850;12.928;2023-01-25T17:42:17;81.32;;;35.58;;
20729;SDS011;10526;50.850;12.928;2023-01-25T17:46:39;80.13;;;36.00;;
20729;SDS011;10526;50.850;12.928;2023-01-25T17:51:01;82.95;;;36.35;;
20729;SDS011;10526;50.850;12.928;2023-01-25T17:55:24;71.75;;;33.20;;
20729;SDS011;10526;50.850;12.928;2023-01-25T17:59:46;70.88;;;32.90;;
20729;SDS011;10526;50.850;12.928;2023-01-25T18:04:08;80.03;;;35.22;;
20729;SDS011;10526;50.850;12.928;2023-01-25T18:08:40;88.32;;;38.15;;
20729;SDS011;10526;50.850;12.928;2023-01-25T18:13:08;88.22;;;38.25;;
20729;SDS011;10526;50.850;12.928;2023-01-25T18:17:30;89.45;;;37.20;;
20729;SDS011;10526;50.850;12.928;2023-01-25T18:21:58;83.03;;;36.80;;
20729;SDS011;10526;50.850;12.928;2023-01-25T18:26:24;84.82;;;38.65;;
20729;SDS011;10526;50.850;12.928;2023-01-25T18:30:58;86.50;;;37.05;;
20729;SDS011;10526;50.850;12.928;2023-01-25T18:35:30;85.32;;;37.42;;
20729;SDS011;10526;50.850;12.928;2023-01-25T18:39:53;85.15;;;37.70;;
20729;SDS011;10526;50.850;12.928;2023-01-25T18:44:16;80.50;;;34.22;;
20729;SDS011;10526;50.850;12.928;2023-01-25T18:48:39;80.25;;;36.85;;
20729;SDS011;10526;50.850;12.928;2023-01-25T18:53:03;83.32;;;37.08;;
20729;SDS011;10526;50.850;12.928;2023-01-25T18:57:25;82.57;;;35.30;;
20729;SDS011;10526;50.850;12.928;2023-01-25T19:01:48;84.70;;;37.20;;
20729;SDS011;10526;50.850;12.928;2023-01-25T19:06:11;88.85;;;37.88;;
20729;SDS011;10526;50.850;12.928;2023-01-25T19:10:33;88.65;;;37.47;;
20729;SDS011;10526;50.850;12.928;2023-01-25T19:14:55;96.10;;;39.10;;
20729;SDS011;10526;50.850;12.928;2023-01-25T19:19:20;88.50;;;39.38;;
20729;SDS011;10526;50.850;12.928;2023-01-25T19:23:42;87.97;;;38.95;;
20729;SDS011;10526;50.850;12.928;2023-01-25T19:28:04;87.57;;;40.13;;
20729;SDS011;10526;50.850;12.928;2023-01-25T19:32:27;87.50;;;38.85;;
20729;SDS011;10526;50.850;12.928;2023-01-25T19:36:49;87.55;;;39.22;;
20729;SDS011;10526;50.850;12.928;2023-01-25T19:41:12;86.75;;;38.63;;
20729;SDS011;10526;50.850;12.928;2023-01-25T19:45:40;79.88;;;37.13;;
20729;SDS011;10526;50.850;12.928;2023-01-25T19:50:02;81.35;;;35.42;;
20729;SDS011;10526;50.850;12.928;2023-01-25T19:54:25;91.47;;;39.05;;
20729;SDS011;10526;50.850;12.928;2023-01-25T19:58:50;87.38;;;37.47;;
20729;SDS011;10526;50.850;12.928;2023-01-25T20:03:12;83.82;;;36.75;;
20729;SDS011;10526;50.850;12.928;2023-01-25T20:07:36;82.00;;;35.50;;
20729;SDS011;10526;50.850;12.928;2023-01-25T20:12:00;82.93;;;38.15;;
20729;SDS011;10526;50.850;12.928;2023-01-25T20:16:26;82.55;;;36.60;;
20729;SDS011;10526;50.850;12.928;2023-01-25T20:21:06;77.05;;;35.35;;
20729;SDS011;10526;50.850;12.928;2023-01-25T20:25:32;82.90;;;36.58;;
20729;SDS011;10526;50.850;12.928;2023-01-25T20:29:54;83.82;;;37.42;;
20729;SDS011;10526;50.850;12.928;2023-01-25T20:34:18;79.55;;;34.33;;
20729;SDS011;10526;50.850;12.928;2023-01-25T20:38:42;72.43;;;33.70;;
20729;SDS011;10526;50.850;12.928;2023-01-25T20:43:04;71.20;;;34.20;;
20729;SDS011;10526;50.850;12.928;2023-01-25T20:47:27;72.10;;;34.33;;
20729;SDS011;10526;50.850;12.928;2023-01-25T20:51:49;65.63;;;32.08;;
20729;SDS011;10526;50.850;12.928;2023-01-25T20:56:11;69.20;;;32.70;;
20729;SDS011;10526;50.850;12.928;2023-01-25T21:00:35;74.35;;;34.42;;
20729;SDS011;10526;50.850;12.928;2023-01-25T21:04:58;71.88;;;33.88;;
20729;SDS011;10526;50.850;12.928;2023-01-25T21:09:20;75.05;;;33.85;;
20729;SDS011;10526;50.850;12.928;2023-01-25T21:13:43;76.55;;;34.30;;
20729;SDS011;10526;50.850;12.928;2023-01-25T21:18:07;66.38;;;32.92;;
20729;SDS011;10526;50.850;12.928;2023-01-25T21:22:29;64.70;;;34.30;;
20729;SDS011;10526;50.850;12.928;2023-01-25T21:26:53;67.20;;;32.88;;
20729;SDS011;10526;50.850;12.928;2023-01-25T21:31:19;70.18;;;32.17;;
20729;SDS011;10526;50.850;12.928;2023-01-25T21:35:43;70.38;;;33.92;;
20729;SDS011;10526;50.850;12.928;2023-01-25T21:40:06;65.93;;;32.08;;
20729;SDS011;10526;50.850;12.928;2023-01-25T21:44:29;66.85;;;32.20;;
20729;SDS011;10526;50.850;12.928;2023-01-25T21:49:10;72.57;;;32.55;;
20729;SDS011;10526;50.850;12.928;2023-01-25T21:53:51;70.57;;;32.88;;
20729;SDS011;10526;50.850;12.928;2023-01-25T21:58:13;69.22;;;32.53;;
20729;SDS011;10526;50.850;12.928;2023-01-25T22:02:38;71.00;;;34.58;;
20729;SDS011;10526;50.850;12.928;2023-01-25T22:07:01;62.00;;;32.22;;
20729;SDS011;10526;50.850;12.928;2023-01-25T22:11:24;70.47;;;32.95;;
20729;SDS011;10526;50.850;12.928;2023-01-25T22:15:46;61.42;;;32.05;;
20729;SDS011;10526;50.850;12.928;2023-01-25T22:20:08;65.03;;;31.00;;
20729;SDS011;10526;50.850;12.928;2023-01-25T22:24:31;60.17;;;31.58;;
20729;SDS011;10526;50.850;12.928;2023-01-25T22:28:54;61.90;;;30.70;;
20729;SDS011;10526;50.850;12.928;2023-01-25T22:33:18;62.83;;;31.23;;
20729;SDS011;10526;50.850;12.928;2023-01-25T22:37:41;62.30;;;30.77;;
20729;SDS011;10526;50.850;12.928;2023-01-25T22:42:03;61.42;;;31.08;;
20729;SDS011;10526;50.850;12.928;2023-01-25T22:46:26;66.60;;;34.03;;
20729;SDS011;10526;50.850;12.928;2023-01-25T22:50:49;65.50;;;33.92;;
20729;SDS011;10526;50.850;12.928;2023-01-25T22:55:11;66.60;;;32.83;;
20729;SDS011;10526;50.850;12.928;2023-01-25T22:59:33;66.55;;;33.75;;
20729;SDS011;10526;50.850;12.928;2023-01-25T23:03:55;67.97;;;34.08;;
20729;SDS011;10526;50.850;12.928;2023-01-25T23:08:18;65.25;;;30.80;;
20729;SDS011;10526;50.850;12.928;2023-01-25T23:12:40;62.85;;;32.08;;
20729;SDS011;10526;50.850;12.928;2023-01-25T23:17:02;60.75;;;31.98;;
20729;SDS011;10526;50.850;12.928;2023-01-25T23:21:42;64.85;;;30.67;;
20729;SDS011;10526;50.850;12.928;2023-01-25T23:26:05;59.13;;;30.98;;
20729;SDS011;10526;50.850;12.928;2023-01-25T23:30:30;64.32;;;30.30;;
20729;SDS011;10526;50.850;12.928;2023-01-25T23:34:52;62.42;;;31.02;;
20729;SDS011;10526;50.850;12.928;2023-01-25T23:39:14;53.90;;;28.35;;
20729;SDS011;10526;50.850;12.928;2023-01-25T23:43:36;52.88;;;27.65;;
20729;SDS011;10526;50.850;12.928;2023-01-25T23:47:58;51.85;;;29.05;;
20729;SDS011;10526;50.850;12.928;2023-01-25T23:52:21;56.53;;;28.73;;
20729;SDS011;10526;50.850;12.928;2023-01-25T23:56:42;59.15;;;30.42;;
